Howard City, MI (49329)

1:41 AM EST on February 12, 2016 (GMT -0500)
Ensley Center - Snow Farm | | Change Station
CLOSE
Current Station
Personal Weather Station
Location: Howard City, MI
Elevation: 982 ft
Nearby Weather Stations

Elev 982 ft 43.36 °N, 85.62 °W | Updated 1 minute ago

Overcast
Overcast
14.0 °F
Feels Like 6 °F
N
4.7
Wind Variable Wind from WSW

Today
High -- | Low -- °F
--% Chance of Precip.
Yesterday
High -- | Low -- °F
Precip. -- in
Pressure 30.10 in
Visibility 10.0 miles
Clouds Overcast 9000 ft
Windchill 6 °F
Dew Point 10 °F
Humidity 85%
Rainfall 0.00 in
Snow Depth Not available.
7:44 AM 6:07 PM
Waxing Crescent, 18% visible
METAR KRQB 120635Z AUTO 24008KT 10SM OVC090 M09/M13 A3010 RMK AO2 T10951135
Pressure 30.10 in
Visibility 10.0 miles
Clouds Overcast 9000 ft
Windchill 6 °F
Dew Point 10 °F
Humidity 85%
Rainfall 0.00 in
Snow Depth Not available.
7:44 AM 6:07 PM
Waxing Crescent, 18% visible
METAR KRQB 120635Z AUTO 24008KT 10SM OVC090 M09/M13 A3010 RMK AO2 T10951135

10-Day Weather Forecast

Almanac

Astronomy

Feb. 12, 2016 Rise Set
Actual Time
Civil Twilight
Nautical Twilight
Astronomical Twilight
Moon
Length of Visible Light
Length of Day
Tomorrow will be .
, % of the Moon is Illuminated

Today's Extremes

State Highs State Lows

Community

WunderPhotos

Upload Photos

1,892,276 photos uploaded!

WunderBlog® & News

Nearby

Air Quality

  Air Quality AQ Index Pollutant
Not available.

Snow Depth

Station Depth Elevation

Earthquake Activity

City Distance Mag. Time & Date
Minimum magnitude displayed is 2.5.

Coastal Water Temperatures

Place Temperature

Stations

Nearby Weather Stations

Station Location Temp. Windchill Dew Point Humidity Wind Precip. Elev Updated Type
                   

Watches & Warnings

There are currently no watches in effect.